Mooresburg, Pennsylvania
Current Conditions -  °F | °C
As of 7:53 PM on Friday 24 Oct 2014 (Local Time) from KSEG Reporting Station
Clear Clear  
Wind Chill: 59°   Ceiling: Unl
Heat Index: 59°   Visibility: 10mi
Dew Point: 34°   Wind: 3mph
Humidity: 39%   Direction: 290°WNW
Pressure: 29.91"   Gusts: NA
Location:  41.0117°N, 76.6578°W
Report Text: KSEG 242353Z AUTO 29003KT 10SM CLR 15/01 A2991 RMK AO2 SLP126 T01500011 10206 20144 53013
Loading
Personal Weather Stations






























Interactive Weather Map
Tropical Storm Tracking
New forecast layout! Learn more

10-Day Weather Forecast

Advertisements
Track Severe Weather on mobile